sensor_id;sensor_type;location;lat;lon;timestamp;P1;durP1;ratioP1;P2;durP2;ratioP2
24663;SDS011;12791;50.992;13.788;2024-03-25T05:02:06;4.55;;;4.00;;
24663;SDS011;12791;50.992;13.788;2024-03-25T05:04:32;4.28;;;3.30;;
24663;SDS011;12791;50.992;13.788;2024-03-25T05:06:58;3.70;;;3.40;;
24663;SDS011;12791;50.992;13.788;2024-03-25T05:09:23;3.80;;;3.30;;
24663;SDS011;12791;50.992;13.788;2024-03-25T05:11:49;4.32;;;3.60;;
24663;SDS011;12791;50.992;13.788;2024-03-25T05:14:15;4.03;;;3.28;;
24663;SDS011;12791;50.992;13.788;2024-03-25T05:16:41;3.97;;;3.45;;
24663;SDS011;12791;50.992;13.788;2024-03-25T05:19:08;3.67;;;3.38;;
24663;SDS011;12791;50.992;13.788;2024-03-25T05:21:34;3.25;;;2.95;;
24663;SDS011;12791;50.992;13.788;2024-03-25T05:24:00;4.05;;;3.55;;
24663;SDS011;12791;50.992;13.788;2024-03-25T05:26:26;4.57;;;3.45;;
24663;SDS011;12791;50.992;13.788;2024-03-25T05:28:54;3.55;;;3.20;;
24663;SDS011;12791;50.992;13.788;2024-03-25T05:31:21;5.07;;;2.47;;
24663;SDS011;12791;50.992;13.788;2024-03-25T05:33:47;4.93;;;3.22;;
24663;SDS011;12791;50.992;13.788;2024-03-25T05:36:14;4.78;;;3.30;;
24663;SDS011;12791;50.992;13.788;2024-03-25T05:38:40;4.20;;;3.75;;
24663;SDS011;12791;50.992;13.788;2024-03-25T05:41:06;3.92;;;3.38;;
24663;SDS011;12791;50.992;13.788;2024-03-25T05:43:31;3.70;;;3.38;;
24663;SDS011;12791;50.992;13.788;2024-03-25T05:45:57;4.60;;;3.10;;
24663;SDS011;12791;50.992;13.788;2024-03-25T05:48:24;5.88;;;3.60;;
24663;SDS011;12791;50.992;13.788;2024-03-25T05:50:57;5.15;;;3.25;;
24663;SDS011;12791;50.992;13.788;2024-03-25T05:53:25;3.92;;;3.30;;
24663;SDS011;12791;50.992;13.788;2024-03-25T05:55:51;4.88;;;3.45;;
24663;SDS011;12791;50.992;13.788;2024-03-25T05:58:16;1.95;;;1.70;;
24663;SDS011;12791;50.992;13.788;2024-03-25T06:00:42;1.70;;;1.00;;
24663;SDS011;12791;50.992;13.788;2024-03-25T06:03:08;2.83;;;1.52;;
24663;SDS011;12791;50.992;13.788;2024-03-25T06:05:34;2.67;;;1.25;;
24663;SDS011;12791;50.992;13.788;2024-03-25T06:07:59;1.40;;;1.30;;
24663;SDS011;12791;50.992;13.788;2024-03-25T06:10:27;3.13;;;1.70;;
24663;SDS011;12791;50.992;13.788;2024-03-25T06:12:52;2.85;;;2.22;;
24663;SDS011;12791;50.992;13.788;2024-03-25T06:15:18;2.53;;;2.13;;
24663;SDS011;12791;50.992;13.788;2024-03-25T06:17:44;3.22;;;2.85;;
24663;SDS011;12791;50.992;13.788;2024-03-25T06:20:10;5.47;;;3.25;;
24663;SDS011;12791;50.992;13.788;2024-03-25T06:22:36;6.80;;;3.75;;
24663;SDS011;12791;50.992;13.788;2024-03-25T06:25:02;7.25;;;3.90;;
24663;SDS011;12791;50.992;13.788;2024-03-25T06:27:29;4.10;;;3.70;;
24663;SDS011;12791;50.992;13.788;2024-03-25T06:29:54;4.43;;;3.80;;
24663;SDS011;12791;50.992;13.788;2024-03-25T06:32:20;6.25;;;3.35;;
24663;SDS011;12791;50.992;13.788;2024-03-25T06:35:04;3.33;;;3.03;;
24663;SDS011;12791;50.992;13.788;2024-03-25T06:37:30;4.60;;;3.25;;
24663;SDS011;12791;50.992;13.788;2024-03-25T06:39:56;3.30;;;2.83;;
24663;SDS011;12791;50.992;13.788;2024-03-25T06:42:22;3.97;;;2.50;;
24663;SDS011;12791;50.992;13.788;2024-03-25T06:44:49;2.25;;;2.05;;
24663;SDS011;12791;50.992;13.788;2024-03-25T06:47:15;4.55;;;2.60;;
24663;SDS011;12791;50.992;13.788;2024-03-25T06:49:40;4.70;;;2.00;;
24663;SDS011;12791;50.992;13.788;2024-03-25T06:52:06;5.22;;;2.08;;
24663;SDS011;12791;50.992;13.788;2024-03-25T06:54:32;3.80;;;2.00;;
24663;SDS011;12791;50.992;13.788;2024-03-25T06:56:58;3.50;;;1.85;;
24663;SDS011;12791;50.992;13.788;2024-03-25T06:59:23;2.20;;;1.50;;
24663;SDS011;12791;50.992;13.788;2024-03-25T07:01:50;6.25;;;2.00;;
24663;SDS011;12791;50.992;13.788;2024-03-25T07:04:16;3.53;;;1.98;;
24663;SDS011;12791;50.992;13.788;2024-03-25T07:06:42;3.15;;;1.48;;
24663;SDS011;12791;50.992;13.788;2024-03-25T07:09:08;4.57;;;1.63;;
24663;SDS011;12791;50.992;13.788;2024-03-25T07:11:34;5.40;;;1.90;;
24663;SDS011;12791;50.992;13.788;2024-03-25T07:14:00;4.22;;;2.20;;
24663;SDS011;12791;50.992;13.788;2024-03-25T07:16:25;3.88;;;2.30;;
24663;SDS011;12791;50.992;13.788;2024-03-25T07:18:52;6.38;;;2.67;;
24663;SDS011;12791;50.992;13.788;2024-03-25T07:21:18;4.18;;;2.28;;
24663;SDS011;12791;50.992;13.788;2024-03-25T07:23:44;5.25;;;3.15;;
24663;SDS011;12791;50.992;13.788;2024-03-25T07:26:10;4.80;;;2.60;;
24663;SDS011;12791;50.992;13.788;2024-03-25T07:28:35;4.88;;;3.40;;
24663;SDS011;12791;50.992;13.788;2024-03-25T07:31:01;6.72;;;3.55;;
24663;SDS011;12791;50.992;13.788;2024-03-25T07:33:27;6.28;;;3.28;;
24663;SDS011;12791;50.992;13.788;2024-03-25T07:35:54;4.07;;;3.25;;
24663;SDS011;12791;50.992;13.788;2024-03-25T07:38:20;4.72;;;3.78;;
24663;SDS011;12791;50.992;13.788;2024-03-25T07:40:46;4.55;;;3.40;;
24663;SDS011;12791;50.992;13.788;2024-03-25T07:43:11;3.92;;;2.95;;
24663;SDS011;12791;50.992;13.788;2024-03-25T07:45:37;4.55;;;2.83;;
24663;SDS011;12791;50.992;13.788;2024-03-25T07:48:03;5.28;;;3.17;;
24663;SDS011;12791;50.992;13.788;2024-03-25T07:50:29;5.78;;;2.50;;
24663;SDS011;12791;50.992;13.788;2024-03-25T07:52:56;3.28;;;2.08;;
24663;SDS011;12791;50.992;13.788;2024-03-25T07:55:22;2.83;;;1.58;;
24663;SDS011;12791;50.992;13.788;2024-03-25T07:57:48;4.13;;;1.80;;
24663;SDS011;12791;50.992;13.788;2024-03-25T08:00:14;3.80;;;1.60;;
24663;SDS011;12791;50.992;13.788;2024-03-25T08:02:40;4.50;;;2.38;;
24663;SDS011;12791;50.992;13.788;2024-03-25T08:05:06;4.40;;;2.13;;
24663;SDS011;12791;50.992;13.788;2024-03-25T08:07:32;5.05;;;1.70;;
24663;SDS011;12791;50.992;13.788;2024-03-25T08:09:59;5.00;;;2.22;;
24663;SDS011;12791;50.992;13.788;2024-03-25T08:12:24;2.22;;;1.65;;
24663;SDS011;12791;50.992;13.788;2024-03-25T08:14:50;3.63;;;2.08;;
24663;SDS011;12791;50.992;13.788;2024-03-25T08:17:16;4.15;;;2.38;;
24663;SDS011;12791;50.992;13.788;2024-03-25T08:19:42;4.95;;;2.45;;
24663;SDS011;12791;50.992;13.788;2024-03-25T08:22:07;4.18;;;2.58;;
24663;SDS011;12791;50.992;13.788;2024-03-25T08:24:33;5.97;;;2.47;;
24663;SDS011;12791;50.992;13.788;2024-03-25T08:27:00;3.08;;;2.70;;
24663;SDS011;12791;50.992;13.788;2024-03-25T08:29:26;2.60;;;2.05;;
24663;SDS011;12791;50.992;13.788;2024-03-25T08:31:52;3.33;;;2.47;;
24663;SDS011;12791;50.992;13.788;2024-03-25T08:34:17;4.35;;;2.80;;
24663;SDS011;12791;50.992;13.788;2024-03-25T08:36:43;3.65;;;2.83;;
24663;SDS011;12791;50.992;13.788;2024-03-25T08:39:09;2.92;;;2.60;;
24663;SDS011;12791;50.992;13.788;2024-03-25T08:41:35;4.07;;;2.60;;
24663;SDS011;12791;50.992;13.788;2024-03-25T08:44:02;5.13;;;3.20;;
24663;SDS011;12791;50.992;13.788;2024-03-25T08:46:28;4.05;;;3.60;;
24663;SDS011;12791;50.992;13.788;2024-03-25T08:48:53;4.30;;;3.40;;
24663;SDS011;12791;50.992;13.788;2024-03-25T08:51:19;4.07;;;3.42;;
24663;SDS011;12791;50.992;13.788;2024-03-25T08:53:45;6.07;;;3.50;;
24663;SDS011;12791;50.992;13.788;2024-03-25T08:56:11;5.50;;;3.58;;
24663;SDS011;12791;50.992;13.788;2024-03-25T08:58:36;3.67;;;3.17;;
24663;SDS011;12791;50.992;13.788;2024-03-25T09:01:04;3.92;;;3.47;;
24663;SDS011;12791;50.992;13.788;2024-03-25T09:03:29;4.50;;;3.53;;
24663;SDS011;12791;50.992;13.788;2024-03-25T09:05:55;3.83;;;2.97;;
24663;SDS011;12791;50.992;13.788;2024-03-25T09:08:21;3.65;;;3.33;;
24663;SDS011;12791;50.992;13.788;2024-03-25T09:10:47;5.07;;;3.67;;
24663;SDS011;12791;50.992;13.788;2024-03-25T09:13:27;7.15;;;3.55;;
24663;SDS011;12791;50.992;13.788;2024-03-25T09:15:53;5.68;;;3.88;;
24663;SDS011;12791;50.992;13.788;2024-03-25T09:18:21;4.22;;;3.83;;
24663;SDS011;12791;50.992;13.788;2024-03-25T09:20:46;5.22;;;3.50;;
24663;SDS011;12791;50.992;13.788;2024-03-25T09:23:12;3.78;;;3.40;;
24663;SDS011;12791;50.992;13.788;2024-03-25T09:25:38;5.72;;;3.83;;
24663;SDS011;12791;50.992;13.788;2024-03-25T09:28:04;4.18;;;2.88;;
24663;SDS011;12791;50.992;13.788;2024-03-25T09:30:31;3.67;;;2.67;;
24663;SDS011;12791;50.992;13.788;2024-03-25T09:32:56;2.67;;;2.38;;
24663;SDS011;12791;50.992;13.788;2024-03-25T09:35:23;2.28;;;2.00;;
24663;SDS011;12791;50.992;13.788;2024-03-25T09:37:49;2.30;;;2.10;;
24663;SDS011;12791;50.992;13.788;2024-03-25T09:40:15;3.03;;;2.00;;
24663;SDS011;12791;50.992;13.788;2024-03-25T09:42:42;5.43;;;2.15;;
24663;SDS011;12791;50.992;13.788;2024-03-25T09:45:12;2.88;;;2.60;;
24663;SDS011;12791;50.992;13.788;2024-03-25T09:47:41;3.10;;;2.67;;
24663;SDS011;12791;50.992;13.788;2024-03-25T09:50:11;3.47;;;2.95;;
24663;SDS011;12791;50.992;13.788;2024-03-25T09:52:39;3.67;;;2.75;;
24663;SDS011;12791;50.992;13.788;2024-03-25T09:55:05;2.83;;;2.58;;
24663;SDS011;12791;50.992;13.788;2024-03-25T09:57:32;2.55;;;2.35;;
24663;SDS011;12791;50.992;13.788;2024-03-25T09:59:59;3.60;;;2.53;;
24663;SDS011;12791;50.992;13.788;2024-03-25T10:02:25;3.03;;;2.45;;
24663;SDS011;12791;50.992;13.788;2024-03-25T10:04:53;2.63;;;2.42;;
24663;SDS011;12791;50.992;13.788;2024-03-25T10:07:21;4.13;;;3.17;;
24663;SDS011;12791;50.992;13.788;2024-03-25T10:09:48;2.90;;;2.58;;
24663;SDS011;12791;50.992;13.788;2024-03-25T10:12:14;2.97;;;2.53;;
24663;SDS011;12791;50.992;13.788;2024-03-25T10:14:40;3.47;;;3.15;;
24663;SDS011;12791;50.992;13.788;2024-03-25T10:17:06;4.35;;;3.15;;
24663;SDS011;12791;50.992;13.788;2024-03-25T10:19:32;4.03;;;3.03;;
24663;SDS011;12791;50.992;13.788;2024-03-25T10:22:02;3.40;;;2.53;;
24663;SDS011;12791;50.992;13.788;2024-03-25T10:24:36;2.67;;;2.47;;
24663;SDS011;12791;50.992;13.788;2024-03-25T10:27:04;2.65;;;2.40;;
24663;SDS011;12791;50.992;13.788;2024-03-25T10:29:30;2.55;;;2.35;;
24663;SDS011;12791;50.992;13.788;2024-03-25T10:31:59;3.40;;;2.20;;
24663;SDS011;12791;50.992;13.788;2024-03-25T10:34:25;3.33;;;2.70;;
24663;SDS011;12791;50.992;13.788;2024-03-25T10:36:51;3.00;;;2.63;;
24663;SDS011;12791;50.992;13.788;2024-03-25T10:39:21;2.35;;;2.15;;
24663;SDS011;12791;50.992;13.788;2024-03-25T10:41:52;3.17;;;2.70;;
24663;SDS011;12791;50.992;13.788;2024-03-25T10:44:22;5.60;;;2.40;;
24663;SDS011;12791;50.992;13.788;2024-03-25T10:46:48;4.00;;;2.63;;
24663;SDS011;12791;50.992;13.788;2024-03-25T10:49:20;2.42;;;2.10;;
24663;SDS011;12791;50.992;13.788;2024-03-25T10:51:51;2.58;;;2.38;;
24663;SDS011;12791;50.992;13.788;2024-03-25T10:54:18;2.50;;;2.10;;
24663;SDS011;12791;50.992;13.788;2024-03-25T10:56:44;2.67;;;1.83;;
24663;SDS011;12791;50.992;13.788;2024-03-25T10:59:10;2.78;;;2.13;;
24663;SDS011;12791;50.992;13.788;2024-03-25T11:01:39;2.03;;;1.80;;
24663;SDS011;12791;50.992;13.788;2024-03-25T11:04:04;2.33;;;1.73;;
24663;SDS011;12791;50.992;13.788;2024-03-25T11:06:31;1.70;;;1.50;;
24663;SDS011;12791;50.992;13.788;2024-03-25T11:08:57;1.77;;;1.67;;
24663;SDS011;12791;50.992;13.788;2024-03-25T11:11:23;2.42;;;2.05;;
24663;SDS011;12791;50.992;13.788;2024-03-25T11:13:49;3.00;;;1.80;;
24663;SDS011;12791;50.992;13.788;2024-03-25T11:16:25;2.67;;;1.98;;
24663;SDS011;12791;50.992;13.788;2024-03-25T11:18:53;1.65;;;1.55;;
24663;SDS011;12791;50.992;13.788;2024-03-25T11:21:24;1.83;;;1.73;;
24663;SDS011;12791;50.992;13.788;2024-03-25T11:23:50;3.78;;;2.40;;
24663;SDS011;12791;50.992;13.788;2024-03-25T11:26:17;2.22;;;1.83;;
24663;SDS011;12791;50.992;13.788;2024-03-25T11:28:44;2.75;;;1.73;;
24663;SDS011;12791;50.992;13.788;2024-03-25T11:31:10;3.53;;;1.88;;
24663;SDS011;12791;50.992;13.788;2024-03-25T11:33:36;2.55;;;1.80;;
24663;SDS011;12791;50.992;13.788;2024-03-25T11:36:04;2.72;;;2.28;;
24663;SDS011;12791;50.992;13.788;2024-03-25T11:38:30;2.08;;;1.83;;
24663;SDS011;12791;50.992;13.788;2024-03-25T11:40:56;2.83;;;1.70;;
24663;SDS011;12791;50.992;13.788;2024-03-25T11:43:22;2.55;;;2.05;;
24663;SDS011;12791;50.992;13.788;2024-03-25T11:45:48;3.78;;;2.65;;
24663;SDS011;12791;50.992;13.788;2024-03-25T11:48:15;2.88;;;1.88;;
24663;SDS011;12791;50.992;13.788;2024-03-25T11:50:41;2.42;;;2.22;;
24663;SDS011;12791;50.992;13.788;2024-03-25T11:53:11;3.88;;;2.47;;
24663;SDS011;12791;50.992;13.788;2024-03-25T11:55:38;2.15;;;1.90;;
24663;SDS011;12791;50.992;13.788;2024-03-25T11:58:04;1.88;;;1.50;;
24663;SDS011;12791;50.992;13.788;2024-03-25T12:00:30;2.45;;;1.80;;
24663;SDS011;12791;50.992;13.788;2024-03-25T12:02:56;1.65;;;1.20;;
24663;SDS011;12791;50.992;13.788;2024-03-25T12:05:22;1.33;;;1.23;;
24663;SDS011;12791;50.992;13.788;2024-03-25T12:07:48;1.23;;;1.00;;
24663;SDS011;12791;50.992;13.788;2024-03-25T12:10:16;2.15;;;1.02;;
24663;SDS011;12791;50.992;13.788;2024-03-25T12:13:00;2.05;;;1.52;;
24663;SDS011;12791;50.992;13.788;2024-03-25T12:15:26;2.03;;;1.52;;
24663;SDS011;12791;50.992;13.788;2024-03-25T12:17:51;1.63;;;1.30;;
24663;SDS011;12791;50.992;13.788;2024-03-25T12:20:17;1.20;;;1.10;;
24663;SDS011;12791;50.992;13.788;2024-03-25T12:22:44;2.13;;;1.23;;
24663;SDS011;12791;50.992;13.788;2024-03-25T12:25:10;1.30;;;1.20;;
24663;SDS011;12791;50.992;13.788;2024-03-25T12:27:38;2.05;;;1.50;;
24663;SDS011;12791;50.992;13.788;2024-03-25T12:30:05;1.17;;;1.00;;
24663;SDS011;12791;50.992;13.788;2024-03-25T12:32:35;1.58;;;1.20;;
24663;SDS011;12791;50.992;13.788;2024-03-25T12:35:02;1.50;;;1.40;;
24663;SDS011;12791;50.992;13.788;2024-03-25T12:37:28;1.80;;;1.70;;
24663;SDS011;12791;50.992;13.788;2024-03-25T12:39:55;1.90;;;1.80;;
24663;SDS011;12791;50.992;13.788;2024-03-25T12:42:21;2.28;;;1.95;;
24663;SDS011;12791;50.992;13.788;2024-03-25T12:44:48;2.00;;;1.80;;
24663;SDS011;12791;50.992;13.788;2024-03-25T12:47:14;1.85;;;1.75;;
24663;SDS011;12791;50.992;13.788;2024-03-25T12:49:40;3.33;;;1.73;;
24663;SDS011;12791;50.992;13.788;2024-03-25T12:52:07;1.70;;;1.60;;
24663;SDS011;12791;50.992;13.788;2024-03-25T12:54:33;1.70;;;1.00;;
24663;SDS011;12791;50.992;13.788;2024-03-25T12:56:59;1.58;;;0.95;;
24663;SDS011;12791;50.992;13.788;2024-03-25T12:59:25;1.23;;;0.98;;
24663;SDS011;12791;50.992;13.788;2024-03-25T13:01:52;1.98;;;1.45;;
24663;SDS011;12791;50.992;13.788;2024-03-25T13:04:18;1.42;;;1.20;;
24663;SDS011;12791;50.992;13.788;2024-03-25T13:06:43;1.10;;;0.90;;
24663;SDS011;12791;50.992;13.788;2024-03-25T13:09:09;2.13;;;1.23;;
24663;SDS011;12791;50.992;13.788;2024-03-25T13:11:35;1.50;;;1.35;;
24663;SDS011;12791;50.992;13.788;2024-03-25T13:14:01;2.05;;;1.70;;
24663;SDS011;12791;50.992;13.788;2024-03-25T13:16:28;1.55;;;1.40;;
24663;SDS011;12791;50.992;13.788;2024-03-25T13:18:56;2.25;;;1.92;;
24663;SDS011;12791;50.992;13.788;2024-03-25T13:21:21;4.55;;;2.00;;
24663;SDS011;12791;50.992;13.788;2024-03-25T13:23:47;3.20;;;1.55;;
24663;SDS011;12791;50.992;13.788;2024-03-25T13:26:13;2.60;;;1.50;;
24663;SDS011;12791;50.992;13.788;2024-03-25T13:28:39;3.95;;;1.35;;
24663;SDS011;12791;50.992;13.788;2024-03-25T13:31:04;1.50;;;1.40;;
24663;SDS011;12791;50.992;13.788;2024-03-25T13:33:30;1.20;;;1.20;;
24663;SDS011;12791;50.992;13.788;2024-03-25T13:35:57;2.78;;;1.48;;
24663;SDS011;12791;50.992;13.788;2024-03-25T13:38:23;1.77;;;1.08;;
24663;SDS011;12791;50.992;13.788;2024-03-25T13:40:49;1.25;;;1.13;;
24663;SDS011;12791;50.992;13.788;2024-03-25T13:43:15;1.27;;;1.15;;
24663;SDS011;12791;50.992;13.788;2024-03-25T13:45:46;2.70;;;1.10;;
24663;SDS011;12791;50.992;13.788;2024-03-25T13:48:13;1.47;;;0.90;;
24663;SDS011;12791;50.992;13.788;2024-03-25T13:50:39;1.00;;;0.95;;
24663;SDS011;12791;50.992;13.788;2024-03-25T13:53:06;1.80;;;1.00;;
24663;SDS011;12791;50.992;13.788;2024-03-25T13:55:32;3.10;;;1.20;;
24663;SDS011;12791;50.992;13.788;2024-03-25T13:57:58;2.88;;;1.35;;
24663;SDS011;12791;50.992;13.788;2024-03-25T14:00:23;2.58;;;1.40;;
24663;SDS011;12791;50.992;13.788;2024-03-25T14:02:49;3.13;;;1.27;;
24663;SDS011;12791;50.992;13.788;2024-03-25T14:05:15;2.55;;;1.27;;
24663;SDS011;12791;50.992;13.788;2024-03-25T14:07:41;2.22;;;1.25;;
24663;SDS011;12791;50.992;13.788;2024-03-25T14:10:08;2.50;;;1.75;;
24663;SDS011;12791;50.992;13.788;2024-03-25T14:12:34;1.80;;;0.90;;
24663;SDS011;12791;50.992;13.788;2024-03-25T14:15:00;1.45;;;1.20;;
24663;SDS011;12791;50.992;13.788;2024-03-25T14:17:26;2.35;;;1.23;;
24663;SDS011;12791;50.992;13.788;2024-03-25T14:19:53;2.35;;;1.10;;
24663;SDS011;12791;50.992;13.788;2024-03-25T14:22:20;1.30;;;0.90;;
24663;SDS011;12791;50.992;13.788;2024-03-25T14:24:46;2.00;;;1.23;;
24663;SDS011;12791;50.992;13.788;2024-03-25T14:27:13;1.98;;;1.25;;
24663;SDS011;12791;50.992;13.788;2024-03-25T14:29:39;2.65;;;1.15;;
24663;SDS011;12791;50.992;13.788;2024-03-25T14:32:05;2.40;;;0.90;;
24663;SDS011;12791;50.992;13.788;2024-03-25T14:34:31;2.55;;;0.95;;
24663;SDS011;12791;50.992;13.788;2024-03-25T14:36:57;2.45;;;0.93;;
24663;SDS011;12791;50.992;13.788;2024-03-25T14:39:23;1.98;;;0.82;;
24663;SDS011;12791;50.992;13.788;2024-03-25T14:41:49;2.88;;;1.00;;
24663;SDS011;12791;50.992;13.788;2024-03-25T14:47:23;2.75;;;1.63;;
24663;SDS011;12791;50.992;13.788;2024-03-25T14:49:49;2.97;;;1.38;;
24663;SDS011;12791;50.992;13.788;2024-03-25T14:52:14;2.75;;;1.50;;
24663;SDS011;12791;50.992;13.788;2024-03-25T14:54:40;2.15;;;1.27;;
24663;SDS011;12791;50.992;13.788;2024-03-25T14:57:06;2.72;;;1.23;;
24663;SDS011;12791;50.992;13.788;2024-03-25T14:59:32;1.80;;;1.38;;
24663;SDS011;12791;50.992;13.788;2024-03-25T15:01:59;1.95;;;1.20;;
24663;SDS011;12791;50.992;13.788;2024-03-25T15:04:27;1.27;;;1.13;;
24663;SDS011;12791;50.992;13.788;2024-03-25T15:06:53;4.22;;;1.58;;
24663;SDS011;12791;50.992;13.788;2024-03-25T15:09:18;2.53;;;1.20;;
24663;SDS011;12791;50.992;13.788;2024-03-25T15:11:44;1.88;;;1.05;;
24663;SDS011;12791;50.992;13.788;2024-03-25T15:14:10;1.67;;;1.00;;
24663;SDS011;12791;50.992;13.788;2024-03-25T15:16:36;1.52;;;1.13;;
24663;SDS011;12791;50.992;13.788;2024-03-25T15:19:01;1.20;;;1.10;;
24663;SDS011;12791;50.992;13.788;2024-03-25T15:21:29;1.90;;;1.23;;
24663;SDS011;12791;50.992;13.788;2024-03-25T15:23:54;2.97;;;1.33;;
24663;SDS011;12791;50.992;13.788;2024-03-25T15:26:20;1.55;;;0.90;;
24663;SDS011;12791;50.992;13.788;2024-03-25T15:28:46;2.40;;;1.10;;
24663;SDS011;12791;50.992;13.788;2024-03-25T15:31:11;1.77;;;0.98;;
24663;SDS011;12791;50.992;13.788;2024-03-25T15:33:37;1.70;;;1.20;;
24663;SDS011;12791;50.992;13.788;2024-03-25T15:36:03;1.75;;;0.90;;
24663;SDS011;12791;50.992;13.788;2024-03-25T15:38:30;1.90;;;0.90;;
24663;SDS011;12791;50.992;13.788;2024-03-25T15:40:56;4.43;;;1.10;;
24663;SDS011;12791;50.992;13.788;2024-03-25T15:43:22;1.52;;;0.90;;
24663;SDS011;12791;50.992;13.788;2024-03-25T15:45:53;1.52;;;0.80;;
24663;SDS011;12791;50.992;13.788;2024-03-25T15:48:19;2.25;;;0.95;;
24663;SDS011;12791;50.992;13.788;2024-03-25T15:50:45;2.80;;;0.90;;
24663;SDS011;12791;50.992;13.788;2024-03-25T15:53:11;2.40;;;0.90;;
24663;SDS011;12791;50.992;13.788;2024-03-25T15:55:38;1.10;;;1.00;;
24663;SDS011;12791;50.992;13.788;2024-03-25T15:58:04;2.17;;;1.13;;
24663;SDS011;12791;50.992;13.788;2024-03-25T16:00:30;2.78;;;1.10;;
24663;SDS011;12791;50.992;13.788;2024-03-25T16:02:55;1.42;;;1.13;;
24663;SDS011;12791;50.992;13.788;2024-03-25T16:05:21;2.20;;;1.10;;
24663;SDS011;12791;50.992;13.788;2024-03-25T16:07:47;1.95;;;1.23;;
24663;SDS011;12791;50.992;13.788;2024-03-25T16:10:13;1.58;;;1.05;;
24663;SDS011;12791;50.992;13.788;2024-03-25T16:12:40;1.58;;;0.82;;
24663;SDS011;12791;50.992;13.788;2024-03-25T16:15:06;1.55;;;0.90;;
24663;SDS011;12791;50.992;13.788;2024-03-25T16:17:32;1.90;;;0.93;;
24663;SDS011;12791;50.992;13.788;2024-03-25T16:19:58;2.17;;;0.98;;
24663;SDS011;12791;50.992;13.788;2024-03-25T16:22:23;2.25;;;1.02;;
24663;SDS011;12791;50.992;13.788;2024-03-25T16:24:49;2.35;;;1.10;;
24663;SDS011;12791;50.992;13.788;2024-03-25T16:27:15;0.82;;;0.82;;
24663;SDS011;12791;50.992;13.788;2024-03-25T16:29:42;3.65;;;1.20;;
24663;SDS011;12791;50.992;13.788;2024-03-25T16:32:08;1.35;;;1.00;;
24663;SDS011;12791;50.992;13.788;2024-03-25T16:34:34;2.55;;;1.00;;
24663;SDS011;12791;50.992;13.788;2024-03-25T16:37:00;2.67;;;1.20;;
24663;SDS011;12791;50.992;13.788;2024-03-25T16:39:25;2.45;;;1.20;;
24663;SDS011;12791;50.992;13.788;2024-03-25T16:41:51;3.45;;;1.40;;
24663;SDS011;12791;50.992;13.788;2024-03-25T16:44:17;2.92;;;1.23;;
24663;SDS011;12791;50.992;13.788;2024-03-25T16:46:44;2.38;;;1.00;;
24663;SDS011;12791;50.992;13.788;2024-03-25T16:49:10;2.10;;;1.20;;
24663;SDS011;12791;50.992;13.788;2024-03-25T16:51:35;2.17;;;1.27;;
24663;SDS011;12791;50.992;13.788;2024-03-25T16:54:01;2.72;;;1.55;;
24663;SDS011;12791;50.992;13.788;2024-03-25T16:56:27;2.40;;;1.20;;
24663;SDS011;12791;50.992;13.788;2024-03-25T16:58:53;2.72;;;1.40;;
24663;SDS011;12791;50.992;13.788;2024-03-25T17:01:18;2.55;;;1.58;;
24663;SDS011;12791;50.992;13.788;2024-03-25T17:03:45;2.67;;;1.70;;
24663;SDS011;12791;50.992;13.788;2024-03-25T17:06:11;2.47;;;1.80;;
24663;SDS011;12791;50.992;13.788;2024-03-25T17:08:37;3.15;;;2.22;;
24663;SDS011;12791;50.992;13.788;2024-03-25T17:11:03;2.55;;;1.63;;
24663;SDS011;12791;50.992;13.788;2024-03-25T17:13:28;3.38;;;1.52;;
24663;SDS011;12791;50.992;13.788;2024-03-25T17:15:54;4.93;;;1.85;;
24663;SDS011;12791;50.992;13.788;2024-03-25T17:18:20;3.97;;;1.23;;
24663;SDS011;12791;50.992;13.788;2024-03-25T17:20:47;2.22;;;1.33;;
24663;SDS011;12791;50.992;13.788;2024-03-25T17:23:14;2.65;;;1.33;;
24663;SDS011;12791;50.992;13.788;2024-03-25T17:25:39;1.52;;;1.35;;
24663;SDS011;12791;50.992;13.788;2024-03-25T17:28:05;2.08;;;1.27;;
24663;SDS011;12791;50.992;13.788;2024-03-25T17:30:31;1.40;;;1.30;;
24663;SDS011;12791;50.992;13.788;2024-03-25T17:32:57;2.40;;;1.70;;
24663;SDS011;12791;50.992;13.788;2024-03-25T17:35:22;3.65;;;1.98;;
24663;SDS011;12791;50.992;13.788;2024-03-25T17:37:50;2.33;;;1.60;;
24663;SDS011;12791;50.992;13.788;2024-03-25T17:40:15;3.00;;;1.75;;
24663;SDS011;12791;50.992;13.788;2024-03-25T17:42:41;1.88;;;1.50;;
24663;SDS011;12791;50.992;13.788;2024-03-25T17:45:07;2.15;;;1.25;;
24663;SDS011;12791;50.992;13.788;2024-03-25T17:47:33;1.65;;;1.38;;
24663;SDS011;12791;50.992;13.788;2024-03-25T17:49:59;2.20;;;1.60;;
24663;SDS011;12791;50.992;13.788;2024-03-25T17:52:25;1.98;;;1.77;;
24663;SDS011;12791;50.992;13.788;2024-03-25T17:54:52;3.13;;;1.30;;
24663;SDS011;12791;50.992;13.788;2024-03-25T17:57:18;1.83;;;1.40;;
24663;SDS011;12791;50.992;13.788;2024-03-25T17:59:44;4.10;;;1.75;;
24663;SDS011;12791;50.992;13.788;2024-03-25T18:02:10;2.53;;;1.30;;
24663;SDS011;12791;50.992;13.788;2024-03-25T18:04:35;1.70;;;1.42;;
24663;SDS011;12791;50.992;13.788;2024-03-25T18:07:01;2.70;;;2.13;;
24663;SDS011;12791;50.992;13.788;2024-03-25T18:22:58;3.40;;;2.03;;
24663;SDS011;12791;50.992;13.788;2024-03-25T18:25:24;3.90;;;2.30;;
24663;SDS011;12791;50.992;13.788;2024-03-25T18:27:50;4.85;;;2.58;;
24663;SDS011;12791;50.992;13.788;2024-03-25T18:30:16;4.30;;;2.90;;
24663;SDS011;12791;50.992;13.788;2024-03-25T18:32:43;3.60;;;2.30;;
24663;SDS011;12791;50.992;13.788;2024-03-25T18:35:09;4.18;;;2.40;;
24663;SDS011;12791;50.992;13.788;2024-03-25T18:37:35;3.83;;;2.92;;
24663;SDS011;12791;50.992;13.788;2024-03-25T18:40:02;5.03;;;3.55;;
24663;SDS011;12791;50.992;13.788;2024-03-25T18:42:29;4.65;;;3.08;;
24663;SDS011;12791;50.992;13.788;2024-03-25T18:44:55;4.18;;;3.33;;
24663;SDS011;12791;50.992;13.788;2024-03-25T18:47:21;3.95;;;3.55;;
24663;SDS011;12791;50.992;13.788;2024-03-25T18:49:48;4.78;;;3.88;;
24663;SDS011;12791;50.992;13.788;2024-03-25T18:52:14;6.22;;;4.78;;
24663;SDS011;12791;50.992;13.788;2024-03-25T18:54:40;5.47;;;4.55;;
24663;SDS011;12791;50.992;13.788;2024-03-25T18:57:07;6.10;;;4.13;;
24663;SDS011;12791;50.992;13.788;2024-03-25T18:59:33;6.15;;;4.38;;
24663;SDS011;12791;50.992;13.788;2024-03-25T19:01:59;5.03;;;4.47;;
24663;SDS011;12791;50.992;13.788;2024-03-25T19:04:25;5.38;;;4.80;;
24663;SDS011;12791;50.992;13.788;2024-03-25T19:06:51;6.65;;;3.85;;
24663;SDS011;12791;50.992;13.788;2024-03-25T19:09:17;4.35;;;3.55;;
24663;SDS011;12791;50.992;13.788;2024-03-25T19:11:43;5.75;;;3.90;;
24663;SDS011;12791;50.992;13.788;2024-03-25T19:14:11;5.30;;;4.13;;
24663;SDS011;12791;50.992;13.788;2024-03-25T19:16:37;5.93;;;4.47;;
24663;SDS011;12791;50.992;13.788;2024-03-25T19:19:03;5.32;;;4.47;;
24663;SDS011;12791;50.992;13.788;2024-03-25T19:21:29;6.82;;;4.55;;
24663;SDS011;12791;50.992;13.788;2024-03-25T19:23:55;6.97;;;4.72;;
24663;SDS011;12791;50.992;13.788;2024-03-25T19:26:21;6.75;;;5.30;;
24663;SDS011;12791;50.992;13.788;2024-03-25T19:28:47;7.28;;;6.20;;
24663;SDS011;12791;50.992;13.788;2024-03-25T19:31:15;11.55;;;8.30;;
24663;SDS011;12791;50.992;13.788;2024-03-25T19:33:41;10.05;;;8.57;;
24663;SDS011;12791;50.992;13.788;2024-03-25T19:36:11;9.15;;;7.57;;
24663;SDS011;12791;50.992;13.788;2024-03-25T19:38:37;10.45;;;7.57;;
24663;SDS011;12791;50.992;13.788;2024-03-25T19:41:03;11.38;;;7.80;;
24663;SDS011;12791;50.992;13.788;2024-03-25T19:43:30;9.55;;;7.28;;
24663;SDS011;12791;50.992;13.788;2024-03-25T19:45:56;8.20;;;6.85;;